Time;durP1;ratioP1;P1;durP2;ratioP2;P2;SDS_P1;SDS_P2;PMS_P1;PMS_P2;Temp;Humidity;BMP_temperature;BMP_pressure;BME280_temperature;BME280_humidity;BME280_pressure;Samples;Min_cycle;Max_cycle;Signal;HPM_P1;HPM_P2
2022/11/16 00:02:19;;;;;;;17.52;12.27;;;;;;;10.77;100.00;99746.50;5111708;28;20486;-50
2022/11/16 00:04:48;;;;;;;17.67;12.38;;;;;;;10.79;100.00;99748.06;5112797;28;20498;-51
2022/11/16 00:07:16;;;;;;;17.02;12.00;;;;;;;10.83;100.00;99738.94;5112645;28;20399;-49
2022/11/16 00:09:44;;;;;;;17.42;12.05;;;;;;;10.83;100.00;99743.38;5112754;28;20044;-50
2022/11/16 00:12:14;;;;;;;18.65;12.38;;;;;;;10.80;100.00;99741.84;5111316;28;20043;-50
2022/11/16 00:14:42;;;;;;;19.67;13.35;;;;;;;10.75;100.00;99744.00;5113370;28;20050;-52
2022/11/16 00:17:10;;;;;;;20.08;12.65;;;;;;;10.79;100.00;99745.44;5112731;28;20451;-52
2022/11/16 00:19:38;;;;;;;18.27;12.73;;;;;;;10.77;100.00;99741.25;5112242;28;20056;-50
2022/11/16 00:22:06;;;;;;;18.95;12.73;;;;;;;10.76;100.00;99737.81;5112431;28;20036;-49
2022/11/16 00:24:35;;;;;;;19.33;13.95;;;;;;;10.78;100.00;99746.41;5112603;28;20586;-53
2022/11/16 00:27:03;;;;;;;20.70;14.15;;;;;;;10.82;100.00;99741.72;5112409;28;20506;-49
2022/11/16 00:29:32;;;;;;;18.63;12.85;;;;;;;10.79;100.00;99734.09;5112657;28;20043;-50
2022/11/16 00:32:01;;;;;;;19.13;12.90;;;;;;;10.84;100.00;99739.81;5112398;28;20074;-52
2022/11/16 00:34:29;;;;;;;21.70;13.65;;;;;;;10.83;100.00;99731.06;5112548;28;20047;-50
2022/11/16 00:36:57;;;;;;;20.45;14.40;;;;;;;10.78;100.00;99733.25;5112232;28;20047;-52
2022/11/16 00:39:25;;;;;;;17.60;12.32;;;;;;;10.84;100.00;99726.66;5112440;28;20546;-50
2022/11/16 00:41:56;;;;;;;18.30;13.55;;;;;;;10.89;100.00;99729.69;5112787;28;20039;-49
2022/11/16 00:44:24;;;;;;;18.80;13.50;;;;;;;10.83;100.00;99720.53;5112921;28;20052;-52
2022/11/16 00:46:54;;;;;;;18.30;12.50;;;;;;;10.89;100.00;99719.19;5116103;28;20043;-48
2022/11/16 00:49:22;;;;;;;20.00;13.77;;;;;;;10.87;100.00;99715.88;5116495;28;20139;-50
2022/11/16 00:51:50;;;;;;;19.70;13.45;;;;;;;10.90;100.00;99717.41;5116200;28;20055;-52
2022/11/16 00:54:18;;;;;;;18.65;13.45;;;;;;;10.84;100.00;99718.75;5116390;28;20416;-51
2022/11/16 00:56:46;;;;;;;22.48;15.50;;;;;;;10.82;100.00;99711.00;5116402;28;20044;-51
2022/11/16 00:59:14;;;;;;;18.55;13.48;;;;;;;10.85;100.00;99711.69;5116287;28;20044;-51
2022/11/16 01:01:42;;;;;;;18.08;13.65;;;;;;;10.85;100.00;99709.06;5116269;27;20043;-51
2022/11/16 01:04:12;;;;;;;20.48;13.45;;;;;;;10.89;100.00;99715.72;5115998;28;20049;-51
2022/11/16 01:06:40;;;;;;;17.98;13.55;;;;;;;10.90;100.00;99707.72;5116124;28;20486;-49
2022/11/16 01:09:08;;;;;;;20.13;13.73;;;;;;;10.88;100.00;99706.16;5116090;28;20058;-51
2022/11/16 01:14:22;;;;;;;19.70;13.18;;;;;;;10.89;100.00;99711.28;5116418;28;20047;-49
2022/11/16 01:16:50;;;;;;;18.90;13.80;;;;;;;10.89;100.00;99710.47;5114556;28;20517;-50
2022/11/16 01:19:20;;;;;;;20.77;13.55;;;;;;;10.86;100.00;99708.94;5115148;28;20045;-53
2022/11/16 01:21:48;;;;;;;19.05;13.80;;;;;;;10.89;100.00;99705.22;5111902;28;20108;-50
2022/11/16 01:24:16;;;;;;;22.50;15.18;;;;;;;10.87;100.00;99707.97;5114109;28;20164;-52
2022/11/16 01:26:44;;;;;;;21.50;15.73;;;;;;;10.90;100.00;99706.88;5115824;28;20100;-53
2022/11/16 01:29:12;;;;;;;23.27;16.27;;;;;;;10.87;100.00;99697.44;5115486;28;20044;-55
2022/11/16 01:31:40;;;;;;;21.25;16.25;;;;;;;10.91;100.00;99695.41;5115508;27;20040;-56
2022/11/16 01:34:08;;;;;;;22.67;16.33;;;;;;;10.86;100.00;99694.97;5115566;28;20078;-55
2022/11/16 01:36:38;;;;;;;24.15;18.05;;;;;;;10.75;100.00;99701.13;5115602;28;20075;-54
2022/11/16 01:39:06;;;;;;;29.42;19.58;;;;;;;10.76;100.00;99706.25;5113987;28;20043;-54
2022/11/16 01:41:35;;;;;;;26.50;19.92;;;;;;;10.83;100.00;99703.94;5115945;28;20047;-53
2022/11/16 01:44:06;;;;;;;27.10;18.02;;;;;;;10.83;100.00;99707.38;5114116;28;20051;-53
2022/11/16 01:46:34;;;;;;;28.70;19.35;;;;;;;10.87;100.00;99710.59;5115359;28;20092;-52
2022/11/16 01:49:05;;;;;;;28.08;18.77;;;;;;;10.80;100.00;99712.91;5115029;28;20143;-52
2022/11/16 01:51:34;;;;;;;23.63;16.98;;;;;;;10.85;100.00;99703.81;5115139;28;20055;-51
2022/11/16 01:54:08;;;;;;;27.38;19.02;;;;;;;10.81;100.00;99690.06;5115177;28;20074;-50
2022/11/16 01:56:38;;;;;;;23.75;16.48;;;;;;;10.87;100.00;99673.78;5114681;28;20055;-49
2022/11/16 01:59:06;;;;;;;21.85;15.50;;;;;;;10.93;100.00;99673.25;5114867;28;20096;-50
2022/11/16 02:01:35;;;;;;;21.75;16.63;;;;;;;10.84;100.00;99666.16;5115137;28;20498;-50
2022/11/16 02:04:03;;;;;;;21.73;15.45;;;;;;;10.85;100.00;99659.91;5115273;28;20075;-53
2022/11/16 02:06:37;;;;;;;20.13;14.43;;;;;;;10.89;100.00;99658.69;5112451;28;20079;-53
2022/11/16 02:12:32;;;;;;;20.60;15.45;;;;;;;10.82;100.00;99666.28;5112610;28;20052;-55
2022/11/16 02:15:12;;;;;;;21.27;14.95;;;;;;;10.82;100.00;99666.28;5111398;28;20055;-55
2022/11/16 02:17:51;;;;;;;21.35;14.80;;;;;;;10.85;100.00;99659.09;5114666;28;20517;-55
2022/11/16 02:20:53;;;;;;;20.58;15.32;;;;;;;10.83;100.00;99659.22;5114993;28;20104;-52
2022/11/16 02:24:14;;;;;;;22.85;16.00;;;;;;;10.83;100.00;99653.97;5105777;28;20121;-53
2022/11/16 02:27:14;;;;;;;23.33;15.68;;;;;;;10.86;100.00;99655.50;5088176;28;20048;-57
2022/11/16 02:29:47;;;;;;;22.83;15.55;;;;;;;10.82;100.00;99657.56;5104142;27;20087;-55
2022/11/16 02:32:21;;;;;;;22.63;15.98;;;;;;;10.80;100.00;99644.53;5110227;28;20044;-54
2022/11/16 02:34:54;;;;;;;23.42;15.68;;;;;;;10.81;100.00;99651.47;5111867;28;20048;-55
2022/11/16 02:37:28;;;;;;;19.73;15.20;;;;;;;10.81;100.00;99646.22;5113910;27;20071;-55
2022/11/16 02:39:59;;;;;;;20.40;14.13;;;;;;;10.84;100.00;99650.38;5113741;28;20065;-55
2022/11/16 02:42:32;;;;;;;17.67;14.07;;;;;;;10.81;100.00;99647.97;5114010;28;20078;-54
2022/11/16 02:45:06;;;;;;;18.92;13.70;;;;;;;10.83;100.00;99649.53;5114212;28;20044;-54
2022/11/16 02:47:39;;;;;;;17.08;13.70;;;;;;;10.81;100.00;99659.34;5114177;28;20107;-54
2022/11/16 02:50:11;;;;;;;17.23;12.95;;;;;;;10.82;100.00;99649.66;5114055;28;20139;-54
2022/11/16 02:52:39;;;;;;;16.83;12.50;;;;;;;10.76;100.00;99647.56;5106714;28;20071;-55
2022/11/16 02:55:09;;;;;;;17.15;12.07;;;;;;;10.82;100.00;99644.41;5106939;28;20112;-54
2022/11/16 02:57:49;;;;;;;15.65;11.48;;;;;;;10.82;100.00;99644.41;5111907;28;20113;-56
2022/11/16 03:00:22;;;;;;;15.27;11.80;;;;;;;10.79;100.00;99639.41;5114459;28;20070;-55
2022/11/16 03:02:59;;;;;;;15.82;11.88;;;;;;;10.85;100.00;99643.31;5110652;28;20120;-56
2022/11/16 03:05:33;;;;;;;17.05;12.52;;;;;;;10.87;100.00;99641.41;5110013;28;20052;-53
2022/11/16 03:08:09;;;;;;;18.58;13.75;;;;;;;10.86;100.00;99627.38;5109608;28;20059;-53
2022/11/16 03:13:30;;;;;;;17.52;13.07;;;;;;;10.81;100.00;99635.69;5113517;28;20047;-54
2022/11/16 03:16:02;;;;;;;20.95;15.35;;;;;;;10.84;100.00;99639.84;5113400;28;20100;-55
2022/11/16 03:18:30;;;;;;;19.70;13.70;;;;;;;10.90;100.00;99631.44;5112107;28;20044;-54
2022/11/16 03:21:10;;;;;;;18.60;13.90;;;;;;;10.87;100.00;99636.97;5113304;28;20050;-54
2022/11/16 03:23:38;;;;;;;20.05;14.18;;;;;;;10.87;100.00;99623.81;5113413;27;20093;-56
2022/11/16 03:26:11;;;;;;;22.60;14.10;;;;;;;10.87;100.00;99626.44;5109924;28;20032;-56
2022/11/16 03:28:48;;;;;;;18.83;14.27;;;;;;;10.85;100.00;99619.63;5109692;28;20075;-53
2022/11/16 03:31:28;;;;;;;21.33;15.32;;;;;;;10.82;100.00;99626.84;5109900;28;20044;-53
2022/11/16 03:34:00;;;;;;;21.02;15.07;;;;;;;10.86;100.00;99622.13;5109203;28;20043;-54
2022/11/16 03:36:33;;;;;;;21.25;16.15;;;;;;;10.90;100.00;99620.91;5108465;28;20043;-56
2022/11/16 03:39:06;;;;;;;23.80;15.85;;;;;;;10.91;100.00;99622.56;5107635;28;20096;-55
2022/11/16 03:41:38;;;;;;;23.13;16.23;;;;;;;10.89;100.00;99623.66;5109351;28;20103;-54
2022/11/16 03:44:08;;;;;;;22.88;17.38;;;;;;;10.86;100.00;99613.41;5109547;27;20039;-54
2022/11/16 03:46:38;;;;;;;23.60;17.10;;;;;;;10.85;100.00;99612.56;5109436;28;20087;-55
2022/11/16 03:49:06;;;;;;;24.80;18.13;;;;;;;10.81;100.00;99613.78;5111935;28;20062;-54
2022/11/16 03:51:35;;;;;;;25.30;18.52;;;;;;;10.84;100.00;99618.81;5109173;28;20048;-52
2022/11/16 03:54:03;;;;;;;24.13;17.33;;;;;;;10.81;100.00;99625.16;5107736;28;20043;-54
2022/11/16 03:56:31;;;;;;;22.70;17.17;;;;;;;10.83;100.00;99625.84;5111114;28;20104;-54
2022/11/16 03:58:59;;;;;;;20.98;15.40;;;;;;;10.83;100.00;99625.03;5110064;28;20066;-54
2022/11/16 04:01:27;;;;;;;20.83;15.02;;;;;;;10.88;100.00;99622.00;5109439;27;20141;-54
2022/11/16 04:03:56;;;;;;;21.30;16.27;;;;;;;10.88;100.00;99619.38;5112934;28;20048;-53
2022/11/16 04:25:53;;;;;;;19.52;13.95;;;;;;;10.81;100.00;99650.63;5109012;28;20043;-54
2022/11/16 04:28:25;;;;;;;20.80;15.07;;;;;;;10.83;100.00;99656.59;5109277;28;20035;-54
2022/11/16 04:39:15;;;;;;;18.58;13.25;;;;;;;10.86;100.00;99656.31;5111549;28;20067;-54
2022/11/16 04:47:05;;;;;;;18.00;13.05;;;;;;;10.91;100.00;99662.03;5110311;28;20055;-55
2022/11/16 04:47:17;;;;;;;15.73;12.13;;;;;;;10.94;100.00;99659.13;5111749;28;20089;-55
2022/11/16 04:49:45;;;;;;;16.73;12.48;;;;;;;10.91;100.00;99651.50;5111963;28;20131;-55
2022/11/16 04:52:14;;;;;;;15.43;11.88;;;;;;;10.92;100.00;99658.44;5111173;28;20071;-54
2022/11/16 04:54:42;;;;;;;15.60;11.68;;;;;;;10.90;100.00;99665.63;5112308;28;20059;-55
2022/11/16 04:57:10;;;;;;;14.98;11.95;;;;;;;10.91;100.00;99662.03;5112175;28;20113;-56
2022/11/16 04:59:39;;;;;;;15.40;11.82;;;;;;;10.89;100.00;99663.94;5112346;28;20035;-55
2022/11/16 05:02:09;;;;;;;15.13;12.13;;;;;;;10.92;100.00;99678.63;5109000;28;20101;-55
2022/11/16 05:04:39;;;;;;;14.80;12.07;;;;;;;10.92;100.00;99676.00;5108468;28;20044;-55
2022/11/16 05:07:09;;;;;;;13.15;11.02;;;;;;;10.91;100.00;99684.88;5109329;28;20046;-55
2022/11/16 05:09:41;;;;;;;15.15;12.07;;;;;;;10.91;100.00;99677.00;5106558;28;20046;-55
2022/11/16 05:12:11;;;;;;;16.40;12.32;;;;;;;10.91;100.00;99679.63;5108982;28;20441;-56
2022/11/16 05:14:41;;;;;;;19.42;13.23;;;;;;;10.95;100.00;99688.91;5112066;28;20131;-55
2022/11/16 05:17:13;;;;;;;16.80;12.43;;;;;;;10.91;100.00;99680.44;5108578;28;20543;-55
2022/11/16 05:22:27;;;;;;;18.13;13.05;;;;;;;10.89;100.00;99685.00;5111922;28;20043;-54
2022/11/16 05:24:57;;;;;;;18.40;12.70;;;;;;;10.86;100.00;99682.63;5112089;28;20054;-56
2022/11/16 05:27:27;;;;;;;15.57;12.38;;;;;;;10.87;100.00;99689.56;5112094;28;20104;-55
2022/11/16 05:29:55;;;;;;;16.27;12.23;;;;;;;10.90;100.00;99688.47;5110168;28;20039;-55
2022/11/16 05:32:24;;;;;;;19.42;12.15;;;;;;;10.90;100.00;99694.56;5109722;28;20035;-55
2022/11/16 05:34:55;;;;;;;14.50;11.87;;;;;;;10.87;100.00;99697.44;5111614;28;20040;-55
2022/11/16 05:37:25;;;;;;;13.82;10.05;;;;;;;10.91;100.00;99696.22;5115215;27;20047;-55
2022/11/16 05:39:55;;;;;;;13.32;9.90;;;;;;;10.85;100.00;99704.63;5110086;28;20089;-55
2022/11/16 05:42:25;;;;;;;12.00;9.38;;;;;;;10.87;100.00;99707.97;5112296;28;20101;-55
2022/11/16 05:44:53;;;;;;;11.88;9.10;;;;;;;10.88;100.00;99714.06;5114209;28;20071;-55
2022/11/16 05:47:21;;;;;;;12.40;9.02;;;;;;;10.83;100.00;99712.66;5112072;28;20121;-54
2022/11/16 05:49:49;;;;;;;11.68;8.38;;;;;;;10.86;100.00;99714.19;5110963;28;20048;-56
2022/11/16 05:52:17;;;;;;;12.88;8.60;;;;;;;10.85;100.00;99719.59;5111103;28;20044;-55
2022/11/16 05:54:45;;;;;;;11.63;8.10;;;;;;;10.85;100.00;99719.59;5108989;28;20130;-55
2022/11/16 05:57:14;;;;;;;11.05;7.75;;;;;;;10.82;100.00;99728.56;5113509;28;20126;-55
2022/11/16 05:59:43;;;;;;;10.90;7.63;;;;;;;10.80;100.00;99733.13;5112596;27;20036;-55
2022/11/16 06:02:12;;;;;;;10.32;7.72;;;;;;;10.72;100.00;99733.75;5111236;28;20438;-54
2022/11/16 06:04:40;;;;;;;11.80;7.90;;;;;;;10.72;100.00;99731.13;5114941;28;20128;-56
2022/11/16 06:07:08;;;;;;;10.63;8.48;;;;;;;10.72;100.00;99735.56;5114016;28;20051;-56
2022/11/16 06:09:36;;;;;;;12.52;8.35;;;;;;;10.72;100.00;99739.03;5109535;28;20039;-56
2022/11/16 06:12:05;;;;;;;12.40;8.05;;;;;;;10.69;100.00;99739.28;5113191;28;20112;-55
2022/11/16 06:14:33;;;;;;;11.07;7.32;;;;;;;10.62;100.00;99736.31;5115219;28;20047;-55
2022/11/16 06:17:02;;;;;;;11.05;7.28;;;;;;;10.62;100.00;99731.06;5111659;28;20104;-56
2022/11/16 06:19:30;;;;;;;9.63;6.30;;;;;;;10.59;100.00;99736.59;5111610;28;20058;-56
2022/11/16 06:21:59;;;;;;;10.68;5.78;;;;;;;10.58;100.00;99728.81;5113229;28;20609;-55
2022/11/16 06:24:27;;;;;;;9.55;5.50;;;;;;;10.58;100.00;99731.44;5109229;28;20055;-53
2022/11/16 06:26:56;;;;;;;10.25;5.25;;;;;;;10.57;100.00;99735.88;5111506;28;20051;-55
2022/11/16 06:29:24;;;;;;;10.48;5.30;;;;;;;10.54;100.00;99730.88;5111418;28;20482;-54
2022/11/16 06:31:52;;;;;;;9.05;4.25;;;;;;;10.45;100.00;99731.63;5114519;28;20127;-54
2022/11/16 06:34:22;;;;;;;8.65;4.63;;;;;;;10.44;100.00;99735.22;5113198;28;20478;-55
2022/11/16 06:36:50;;;;;;;9.95;4.53;;;;;;;10.43;100.00;99736.16;5110735;28;20100;-55
2022/11/16 06:39:18;;;;;;;10.52;4.20;;;;;;;10.34;100.00;99740.34;5113276;27;20070;-55
2022/11/16 06:41:46;;;;;;;9.13;3.85;;;;;;;10.34;100.00;99750.03;5113941;28;20040;-54
2022/11/16 06:44:14;;;;;;;9.25;3.38;;;;;;;10.35;100.00;99743.84;5110584;28;20048;-55
2022/11/16 06:46:43;;;;;;;9.50;4.10;;;;;;;10.26;100.00;99748.84;5110640;28;20054;-55
2022/11/16 06:49:11;;;;;;;8.52;3.40;;;;;;;10.17;100.00;99759.28;5110685;28;20052;-55
2022/11/16 06:51:40;;;;;;;8.95;3.03;;;;;;;10.08;100.00;99752.97;5110328;28;20051;-53
2022/11/16 06:54:08;;;;;;;8.07;3.00;;;;;;;10.05;100.00;99768.97;5107089;28;20059;-56
2022/11/16 06:56:37;;;;;;;8.05;2.75;;;;;;;9.97;100.00;99769.59;5113872;28;20073;-55
2022/11/16 06:59:05;;;;;;;7.47;2.85;;;;;;;9.93;100.00;99765.56;5113978;28;20075;-54
2022/11/16 07:01:33;;;;;;;6.30;2.70;;;;;;;9.88;100.00;99767.69;5112263;28;20040;-55
2022/11/16 07:04:01;;;;;;;12.82;3.22;;;;;;;9.76;100.00;99769.50;5110610;28;20470;-55
2022/11/16 07:06:29;;;;;;;8.88;2.75;;;;;;;9.73;100.00;99769.75;5112219;28;20092;-55
2022/11/16 07:08:59;;;;;;;7.68;2.53;;;;;;;9.61;100.00;99782.03;5108975;28;20054;-54
2022/11/16 07:11:27;;;;;;;10.32;2.75;;;;;;;9.57;100.00;99788.47;5110575;28;20370;-53
2022/11/16 07:13:55;;;;;;;9.43;3.05;;;;;;;9.51;100.00;99786.34;5112197;28;20077;-54
2022/11/16 07:16:23;;;;;;;10.00;3.30;;;;;;;9.43;100.00;99792.19;5110843;28;20071;-54
2022/11/16 07:18:55;;;;;;;9.18;2.88;;;;;;;9.45;100.00;99803.41;5110255;28;20044;-54
2022/11/16 07:21:23;;;;;;;8.35;2.60;;;;;;;9.42;100.00;99795.75;5110148;28;20047;-53
2022/11/16 07:23:51;;;;;;;5.72;2.50;;;;;;;9.39;100.00;99803.84;5108768;28;20044;-55
2022/11/16 07:26:21;;;;;;;8.07;2.30;;;;;;;9.30;100.00;99816.72;5112196;28;20213;-55
2022/11/16 07:28:49;;;;;;;10.70;2.83;;;;;;;9.38;100.00;99817.94;5112801;28;20052;-54
2022/11/16 07:31:19;;;;;;;8.50;2.72;;;;;;;9.38;100.00;99816.16;5112846;28;20059;-54
2022/11/16 07:33:47;;;;;;;7.72;2.45;;;;;;;9.43;100.00;99818.41;5113535;28;20490;-55
2022/11/16 07:36:15;;;;;;;6.60;2.20;;;;;;;9.45;100.00;99822.59;5113447;28;20505;-54
2022/11/16 07:38:44;;;;;;;4.90;2.58;;;;;;;9.44;100.00;99828.78;5110858;28;20098;-54
2022/11/16 07:41:14;;;;;;;9.48;2.35;;;;;;;9.50;100.00;99829.28;5109554;28;20051;-54
2022/11/16 07:43:44;;;;;;;7.65;2.50;;;;;;;9.46;100.00;99824.28;5109792;28;20067;-55
2022/11/16 07:46:22;;;;;;;6.20;2.20;;;;;;;9.41;100.00;99830.84;5110042;28;20720;-54
2022/11/16 07:49:13;;;;;;;6.88;2.50;;;;;;;9.37;100.00;99842.53;5109704;27;20094;-53
2022/11/16 07:51:41;;;;;;;7.57;2.35;;;;;;;9.30;100.00;99850.03;5109303;28;20047;-52
2022/11/16 07:54:12;;;;;;;9.38;2.53;;;;;;;9.36;100.00;99852.16;5107768;28;20109;-56
2022/11/16 07:56:41;;;;;;;7.85;2.45;;;;;;;9.41;100.00;99846.59;5109067;28;20043;-55
2022/11/16 07:59:10;;;;;;;11.07;3.17;;;;;;;9.53;100.00;99863.16;5109905;28;20520;-53
2022/11/16 08:01:38;;;;;;;7.88;2.92;;;;;;;9.68;100.00;99861.16;5111600;28;20081;-54
2022/11/16 08:04:07;;;;;;;10.18;3.53;;;;;;;9.79;100.00;99858.56;5109020;28;20055;-54
2022/11/16 08:06:35;;;;;;;6.85;3.08;;;;;;;10.03;100.00;99861.03;5108331;28;20478;-56
2022/11/16 08:09:05;;;;;;;9.40;2.63;;;;;;;9.96;100.00;99871.19;5107645;28;20054;-56
2022/11/16 08:11:33;;;;;;;8.68;4.32;;;;;;;10.09;100.00;99865.81;5109332;28;20101;-56
2022/11/16 08:14:01;;;;;;;9.25;3.80;;;;;;;10.08;100.00;99866.78;5111387;28;20047;-54
2022/11/16 08:16:32;;;;;;;9.07;3.78;;;;;;;10.24;100.00;99870.81;5108848;28;20469;-54
2022/11/16 08:19:01;;;;;;;15.73;3.90;;;;;;;10.40;100.00;99865.22;5108444;28;20047;-55
2022/11/16 08:21:29;;;;;;;8.52;3.75;;;;;;;10.54;100.00;99875.47;5108595;28;20083;-55
2022/11/16 08:23:57;;;;;;;10.02;3.58;;;;;;;10.47;100.00;99877.75;5107036;28;20113;-54
2022/11/16 08:26:26;;;;;;;14.52;3.78;;;;;;;10.51;100.00;99866.97;5109427;28;20525;-55
2022/11/16 08:28:55;;;;;;;8.85;3.17;;;;;;;10.66;100.00;99871.00;5109438;28;20069;-55
2022/11/16 08:31:26;;;;;;;9.20;3.40;;;;;;;10.54;100.00;99866.72;5109299;28;20112;-55
2022/11/16 08:33:56;;;;;;;7.63;3.13;;;;;;;10.55;100.00;99864.00;5108091;28;20382;-54
2022/11/16 08:36:24;;;;;;;10.63;3.95;;;;;;;10.44;100.00;99871.88;5111780;28;20048;-54
2022/11/16 08:38:53;;;;;;;10.90;3.95;;;;;;;10.37;100.00;99866.28;5107496;28;20153;-54
2022/11/16 08:41:21;;;;;;;11.30;4.25;;;;;;;10.49;100.00;99875.81;5109845;28;20047;-55
2022/11/16 08:43:52;;;;;;;11.82;4.13;;;;;;;10.49;100.00;99870.56;5110518;28;20048;-54
2022/11/16 08:46:20;;;;;;;10.23;4.00;;;;;;;10.47;100.00;99875.13;5109085;28;20052;-56
2022/11/16 08:48:48;;;;;;;7.22;3.50;;;;;;;10.49;100.00;99877.63;5108100;28;20059;-55
2022/11/16 08:51:18;;;;;;;10.52;3.83;;;;;;;10.51;100.00;99875.69;5108811;28;20491;-56
2022/11/16 08:53:48;;;;;;;11.57;4.18;;;;;;;10.53;100.00;99873.78;5106778;28;20710;-55
2022/11/16 08:56:18;;;;;;;10.02;3.83;;;;;;;10.44;100.00;99883.25;5108669;28;20378;-57
2022/11/16 08:58:46;;;;;;;11.35;3.50;;;;;;;10.55;100.00;99892.06;5108769;28;20101;-56
2022/11/16 09:01:21;;;;;;;11.45;4.03;;;;;;;10.58;100.00;99895.28;5108197;28;20039;-56
2022/11/16 09:03:50;;;;;;;10.32;3.78;;;;;;;10.70;100.00;99895.25;5107556;28;20040;-56
2022/11/16 09:06:19;;;;;;;12.43;4.07;;;;;;;10.65;100.00;99895.63;5110058;28;20079;-56
2022/11/16 09:08:47;;;;;;;10.60;3.95;;;;;;;10.67;100.00;99903.41;5111167;28;20051;-56
2022/11/16 09:11:17;;;;;;;13.15;3.67;;;;;;;10.64;100.00;99901.84;5112681;28;20044;-56
2022/11/16 09:13:47;;;;;;;13.45;3.75;;;;;;;10.64;100.00;99907.94;5112205;28;20104;-56
2022/11/16 09:16:16;;;;;;;13.23;3.78;;;;;;;10.70;100.00;99900.50;5112908;28;20150;-55
2022/11/16 09:18:45;;;;;;;12.20;3.42;;;;;;;10.68;100.00;99898.00;5114656;28;20070;-56
2022/11/16 09:21:19;;;;;;;10.55;3.47;;;;;;;10.71;100.00;99907.44;5112306;28;20093;-56
2022/11/16 09:23:47;;;;;;;14.77;3.30;;;;;;;10.74;100.00;99904.56;5110630;28;20406;-57
2022/11/16 09:26:19;;;;;;;12.50;3.97;;;;;;;10.78;100.00;99903.34;5112302;28;20072;-57
2022/11/16 09:28:48;;;;;;;11.63;3.70;;;;;;;10.91;100.00;99905.84;5114896;28;20055;-57
2022/11/16 09:31:16;;;;;;;8.27;2.90;;;;;;;11.08;100.00;99912.34;5112226;28;20056;-56
2022/11/16 09:33:50;;;;;;;12.30;3.13;;;;;;;11.07;100.00;99908.03;5111194;28;20533;-56
2022/11/16 09:36:20;;;;;;;14.00;3.22;;;;;;;11.31;100.00;99908.63;5114099;28;20043;-56
2022/11/16 09:38:48;;;;;;;10.82;2.80;;;;;;;11.20;100.00;99913.13;5111405;27;20048;-57
2022/11/16 09:41:55;;;;;;;12.20;3.30;;;;;;;11.55;100.00;99918.09;5113098;28;20047;-57
2022/11/16 09:44:48;;;;;;;11.57;2.88;;;;;;;11.77;100.00;99919.75;5113434;28;20055;-57
2022/11/16 09:47:18;;;;;;;12.68;2.75;;;;;;;11.72;100.00;99916.66;5111942;28;20051;-57
2022/11/16 09:49:52;;;;;;;12.48;2.60;;;;;;;11.62;100.00;99908.72;5111846;28;20406;-58
2022/11/16 09:52:32;;;;;;;12.77;2.97;;;;;;;12.17;100.00;99911.09;5112936;28;20073;-57
2022/11/16 09:55:18;;;;;;;11.43;2.40;;;;;;;12.14;100.00;99915.81;5112483;28;20549;-57
2022/11/16 09:57:47;;;;;;;8.90;2.65;;;;;;;12.04;100.00;99925.44;5110454;28;20518;-57
2022/11/16 10:00:21;;;;;;;10.32;2.42;;;;;;;11.88;100.00;99920.66;5114151;28;20551;-57
2022/11/16 10:03:00;;;;;;;7.95;2.30;;;;;;;11.81;100.00;99926.44;5110918;28;20545;-58
2022/11/16 10:05:36;;;;;;;12.60;2.60;;;;;;;11.71;100.00;99930.81;5110136;28;20047;-57
2022/11/16 10:08:14;;;;;;;13.25;2.80;;;;;;;11.77;100.00;99917.13;5109899;28;20043;-57
2022/11/16 10:10:53;;;;;;;9.52;2.25;;;;;;;11.65;100.00;99924.25;5114028;28;20547;-57
2022/11/16 10:13:34;;;;;;;9.82;2.20;;;;;;;11.60;100.00;99928.22;5111181;28;20100;-55
2022/11/16 10:16:11;;;;;;;12.27;2.25;;;;;;;11.46;100.00;99929.41;5110308;28;20736;-55
2022/11/16 10:18:52;;;;;;;8.45;2.30;;;;;;;11.50;100.00;99920.28;5113907;28;20122;-55
2022/11/16 10:21:44;;;;;;;10.57;3.05;;;;;;;11.62;100.00;99931.59;5114910;28;20043;-56
2022/11/16 10:24:37;;;;;;;11.38;2.25;;;;;;;11.58;100.00;99927.53;5114692;28;20051;-55
2022/11/16 10:27:24;;;;;;;7.97;2.20;;;;;;;11.61;100.00;99927.28;5109663;28;20506;-55
2022/11/16 10:30:02;;;;;;;7.13;2.03;;;;;;;11.68;100.00;99933.69;5114840;28;20082;-56
2022/11/16 10:32:34;;;;;;;11.88;2.05;;;;;;;11.86;100.00;99933.09;5114576;28;20047;-54
2022/11/16 10:35:08;;;;;;;9.07;1.88;;;;;;;11.94;100.00;99931.53;5114664;28;20090;-56
2022/11/16 10:37:40;;;;;;;9.10;2.10;;;;;;;11.98;100.00;99932.94;5114574;28;20046;-56
2022/11/16 10:40:18;;;;;;;9.95;2.53;;;;;;;11.78;100.00;99928.47;5114277;28;20105;-56
2022/11/16 10:42:53;;;;;;;9.18;2.17;;;;;;;11.86;100.00;99920.75;5112852;28;20184;-56
2022/11/16 10:45:27;;;;;;;9.40;2.03;;;;;;;11.71;100.00;99927.34;5113999;28;20043;-55
2022/11/16 10:48:01;;;;;;;11.90;2.10;;;;;;;11.74;100.00;99927.91;5112845;28;20126;-56
2022/11/16 10:50:37;;;;;;;9.15;1.95;;;;;;;11.97;100.00;99923.34;5114171;28;20134;-54
2022/11/16 10:53:13;;;;;;;11.48;2.58;;;;;;;12.16;100.00;99930.53;5114050;28;20042;-56
2022/11/16 10:55:42;;;;;;;8.45;2.60;;;;;;;12.05;100.00;99927.94;5112748;28;20112;-56
2022/11/16 10:58:10;;;;;;;7.25;2.30;;;;;;;12.12;100.00;99920.34;5113669;28;20126;-56
2022/11/16 11:00:42;;;;;;;11.25;2.92;;;;;;;12.13;100.00;99924.66;5113526;28;20541;-56
2022/11/16 11:03:10;;;;;;;9.63;2.70;;;;;;;12.03;100.00;99919.34;5113229;28;20071;-56
2022/11/16 11:05:49;;;;;;;10.30;2.60;;;;;;;12.03;100.00;99911.44;5113216;28;20040;-56
2022/11/16 11:08:29;;;;;;;9.32;2.88;;;;;;;12.00;100.00;99907.28;5113655;28;20043;-56
2022/11/16 11:12:36;;;;;;;11.02;2.65;;;;;;;11.94;100.00;99914.84;5114226;28;20059;-56
2022/11/16 11:14:03;;;;;;;12.65;3.00;;;;;;;11.91;100.00;99910.66;5113889;28;20472;-55
2022/11/16 11:16:34;;;;;;;9.18;2.75;;;;;;;11.81;100.00;99910.63;5113897;28;20044;-55
2022/11/16 11:19:19;;;;;;;11.43;3.03;;;;;;;11.76;100.00;99910.16;5113925;27;20055;-56
2022/11/16 11:21:48;;;;;;;11.18;3.03;;;;;;;11.96;100.00;99920.84;5113517;28;20075;-55
2022/11/16 11:24:18;;;;;;;9.57;3.38;;;;;;;12.09;100.00;99907.44;5113426;28;20036;-56
2022/11/16 11:27:08;;;;;;;11.20;2.67;;;;;;;12.26;100.00;99901.56;5110742;28;20142;-55
2022/11/16 11:29:37;;;;;;;10.02;2.53;;;;;;;12.11;100.00;99893.19;5110289;28;20082;-53
2022/11/16 11:32:08;;;;;;;10.02;2.60;;;;;;;12.11;100.00;99895.00;5112478;28;20059;-55
2022/11/16 11:34:41;;;;;;;9.95;2.63;;;;;;;11.91;100.00;99886.13;5113370;28;20040;-56
2022/11/16 11:37:15;;;;;;;6.50;2.17;;;;;;;11.83;100.00;99897.31;5113379;28;20146;-55
2022/11/16 11:39:44;;;;;;;8.75;2.47;;;;;;;11.86;100.00;99889.13;5113190;28;20036;-55
2022/11/16 11:42:23;;;;;;;8.50;2.55;;;;;;;11.87;100.00;99892.63;5113682;28;20052;-58
2022/11/16 11:44:57;;;;;;;11.32;2.50;;;;;;;11.90;100.00;99887.09;5112545;28;20054;-58
2022/11/16 11:47:40;;;;;;;8.77;2.20;;;;;;;11.80;100.00;99885.25;5110427;28;20086;-57
2022/11/16 11:50:38;;;;;;;7.68;2.13;;;;;;;11.84;100.00;99875.28;5109340;28;20100;-57
2022/11/16 11:53:11;;;;;;;6.88;2.00;;;;;;;11.79;100.00;99873.06;5107953;28;20051;-57
2022/11/16 11:55:39;;;;;;;10.45;2.10;;;;;;;11.77;100.00;99869.69;5111308;28;20470;-58
2022/11/16 11:58:15;;;;;;;7.30;2.10;;;;;;;11.75;100.00;99868.16;5110652;28;20040;-58
2022/11/16 12:00:55;;;;;;;10.13;2.28;;;;;;;11.65;100.00;99870.75;5109494;28;20051;-57
2022/11/16 12:04:11;;;;;;;7.55;2.00;;;;;;;11.58;100.00;99874.88;5109090;28;20494;-57
2022/11/16 12:06:44;;;;;;;9.73;1.90;;;;;;;11.58;100.00;99873.06;5086191;28;20130;-57
2022/11/16 12:09:25;;;;;;;7.50;1.70;;;;;;;11.63;100.00;99867.41;5107899;28;20510;-57
2022/11/16 12:12:07;;;;;;;8.88;1.92;;;;;;;11.73;100.00;99872.75;5109242;28;20055;-57
2022/11/16 12:14:59;;;;;;;7.05;2.17;;;;;;;11.64;100.00;99871.72;5112703;28;20043;-58
2022/11/16 12:17:35;;;;;;;7.50;1.92;;;;;;;11.74;100.00;99869.97;5112734;28;20047;-58
2022/11/16 12:20:21;;;;;;;8.55;2.45;;;;;;;11.76;100.00;99864.56;5112848;28;20067;-58
2022/11/16 12:23:11;;;;;;;8.00;2.35;;;;;;;11.79;100.00;99866.94;5111508;28;20043;-58